Time;durP1;ratioP1;P1;durP2;ratioP2;P2;SDS_P1;SDS_P2;PMS_P1;PMS_P2;Temp;Humidity;BMP_temperature;BMP_pressure;BME280_temperature;BME280_humidity;BME280_pressure;Samples;Min_cycle;Max_cycle;Signal;HPM_P1;HPM_P2
2022/05/20 00:00:31;;;;;;;2.92;1.95;;;;;;;5.17;67.28;94527.16;5110894;28;20024;-49
2022/05/20 00:02:57;;;;;;;2.17;1.85;;;;;;;5.26;67.18;94521.47;5110647;28;20023;-48
2022/05/20 00:05:23;;;;;;;2.50;1.85;;;;;;;4.99;68.13;94519.31;5110871;28;20119;-50
2022/05/20 00:07:48;;;;;;;2.60;1.80;;;;;;;5.11;68.70;94518.16;5109711;28;20416;-50
2022/05/20 00:10:15;;;;;;;2.00;1.73;;;;;;;4.99;68.69;94504.88;5110482;28;20104;-50
2022/05/20 00:12:41;;;;;;;2.58;1.90;;;;;;;4.92;69.35;94517.00;5110837;28;20124;-50
2022/05/20 00:15:08;;;;;;;1.88;1.77;;;;;;;4.71;69.83;94517.59;5097379;28;20103;-50
2022/05/20 00:17:33;;;;;;;2.30;1.88;;;;;;;4.65;69.56;94494.91;5089217;28;20035;-49
2022/05/20 00:19:59;;;;;;;1.77;1.65;;;;;;;4.80;69.82;94506.47;5089444;28;20028;-48
2022/05/20 00:22:25;;;;;;;2.03;1.73;;;;;;;4.71;70.79;94509.38;5089018;28;20055;-50
2022/05/20 00:27:34;;;;;;;8.85;4.78;;;;;;;4.45;71.62;94501.22;5089362;28;20078;-47
2022/05/20 00:30:00;;;;;;;6.53;3.67;;;;;;;4.58;71.20;94505.06;5089273;28;20028;-46
2022/05/20 00:32:25;;;;;;;2.83;2.25;;;;;;;4.63;69.97;94498.16;5089025;28;20028;-47
2022/05/20 00:34:51;;;;;;;3.88;2.20;;;;;;;4.74;69.81;94503.72;5089016;28;20466;-47
2022/05/20 00:37:16;;;;;;;1.77;1.42;;;;;;;4.69;68.91;94501.66;5088734;28;20028;-48
2022/05/20 00:39:41;;;;;;;2.88;1.90;;;;;;;4.67;69.35;94511.59;5088743;28;20027;-49
2022/05/20 00:42:16;;;;;;;2.20;1.90;;;;;;;4.67;69.57;94511.59;5088714;28;20028;-49
2022/05/20 00:44:41;;;;;;;2.40;2.20;;;;;;;4.61;69.96;94509.56;5087551;28;20032;-51
2022/05/20 00:47:07;;;;;;;2.58;2.25;;;;;;;4.69;69.57;94509.13;5106552;28;20027;-47
2022/05/20 00:49:32;;;;;;;3.15;1.95;;;;;;;4.65;68.53;94508.59;5112182;28;20032;-47
2022/05/20 00:51:58;;;;;;;3.15;2.38;;;;;;;4.55;69.39;94516.22;5111638;28;20023;-49
2022/05/20 00:54:26;;;;;;;2.50;2.10;;;;;;;4.61;70.56;94508.81;5113030;28;20066;-46
2022/05/20 00:57:16;;;;;;;2.38;2.17;;;;;;;4.60;70.13;94521.75;5106834;28;20103;-47
2022/05/20 00:59:43;;;;;;;3.20;2.90;;;;;;;4.48;69.56;94522.13;5083363;28;20498;-47
2022/05/20 01:02:16;;;;;;;4.03;2.97;;;;;;;4.44;69.56;94510.66;5091068;28;20110;-47
2022/05/20 01:04:42;;;;;;;5.28;3.65;;;;;;;4.34;70.01;94517.50;5092582;28;20028;-47
2022/05/20 01:07:08;;;;;;;5.47;3.15;;;;;;;4.26;69.85;94505.50;5091328;28;20030;-46
2022/05/20 01:09:38;;;;;;;4.97;3.33;;;;;;;4.35;69.81;94517.00;5090897;28;20116;-47
2022/05/20 01:12:04;;;;;;;4.50;2.75;;;;;;;4.38;69.58;94518.03;5092071;28;20032;-48
2022/05/20 01:14:30;;;;;;;11.05;3.92;;;;;;;4.19;69.69;94514.13;5090966;28;20028;-48
2022/05/20 01:16:55;;;;;;;4.63;3.33;;;;;;;4.00;69.68;94508.22;5092510;28;20034;-48
2022/05/20 01:19:40;;;;;;;4.03;3.05;;;;;;;4.17;69.52;94509.16;5090965;28;20035;-47
2022/05/20 01:22:07;;;;;;;6.47;4.05;;;;;;;4.03;70.23;94507.25;5108225;28;20135;-50
2022/05/20 01:24:33;;;;;;;10.60;4.10;;;;;;;4.06;69.92;94513.72;5092076;28;20516;-49
2022/05/20 01:26:59;;;;;;;10.93;5.15;;;;;;;4.04;70.03;94511.50;5092461;28;20112;-48
2022/05/20 01:29:24;;;;;;;6.53;3.88;;;;;;;4.07;70.18;94515.25;5092009;28;20501;-48
2022/05/20 01:31:50;;;;;;;8.77;4.40;;;;;;;4.20;70.13;94510.16;5090703;28;20019;-49
2022/05/20 01:34:15;;;;;;;6.85;3.85;;;;;;;4.22;69.21;94513.91;5091935;28;20016;-47
2022/05/20 01:36:41;;;;;;;4.45;3.13;;;;;;;4.24;69.42;94503.25;5092182;28;20446;-49
2022/05/20 01:39:06;;;;;;;8.85;2.92;;;;;;;4.10;69.76;94501.38;5092147;28;20020;-47
2022/05/20 01:41:48;;;;;;;3.67;2.78;;;;;;;3.96;69.19;94504.19;5094404;28;20024;-49
2022/05/20 01:44:32;;;;;;;2.35;2.13;;;;;;;4.05;68.64;94502.03;5110811;28;20531;-49
2022/05/20 01:47:19;;;;;;;2.65;2.22;;;;;;;3.75;69.50;94512.41;5110792;28;20517;-49
2022/05/20 01:49:55;;;;;;;1.95;1.60;;;;;;;3.54;71.61;94508.19;5111800;28;20488;-48
2022/05/20 01:52:26;;;;;;;6.30;1.95;;;;;;;3.59;71.42;94501.28;5110963;27;20042;-46
2022/05/20 01:55:03;;;;;;;3.60;2.08;;;;;;;3.53;71.15;94487.56;5110626;28;20028;-48
2022/05/20 01:57:28;;;;;;;2.90;2.13;;;;;;;3.68;70.52;94506.63;5110537;28;20029;-46
2022/05/20 02:00:08;;;;;;;3.72;1.98;;;;;;;3.76;70.01;94513.91;5111009;28;20081;-48
2022/05/20 02:03:00;;;;;;;2.35;1.52;;;;;;;3.71;69.52;94517.31;5111470;28;20161;-46
2022/05/20 02:05:32;;;;;;;1.92;1.75;;;;;;;3.62;70.09;94516.69;5111531;28;20027;-47
2022/05/20 02:08:04;;;;;;;2.60;2.10;;;;;;;3.56;70.51;94516.63;5111698;28;20117;-48
2022/05/20 02:10:41;;;;;;;1.73;1.42;;;;;;;3.52;71.06;94520.78;5110165;28;20020;-48
2022/05/20 02:13:08;;;;;;;2.42;1.85;;;;;;;3.59;70.96;94520.41;5110447;28;20045;-51
2022/05/20 02:15:39;;;;;;;6.68;3.67;;;;;;;3.69;70.60;94524.50;5110214;28;20061;-50
2022/05/20 02:18:05;;;;;;;9.65;4.95;;;;;;;3.66;71.30;94520.00;5110269;28;20027;-51
2022/05/20 02:20:44;;;;;;;9.68;5.88;;;;;;;3.69;71.42;94522.50;5110417;28;20011;-48
2022/05/20 02:23:14;;;;;;;9.25;6.15;;;;;;;3.70;71.89;94515.81;5110373;28;20509;-49
2022/05/20 02:25:48;;;;;;;8.25;5.07;;;;;;;3.64;71.95;94512.25;5110002;28;20031;-46
2022/05/20 02:28:36;;;;;;;6.43;4.45;;;;;;;3.48;71.80;94510.09;5110201;28;20035;-49
2022/05/20 02:31:04;;;;;;;5.68;3.88;;;;;;;3.29;72.40;94514.28;5111332;28;20028;-48
2022/05/20 02:33:30;;;;;;;6.15;3.95;;;;;;;3.02;72.69;94517.38;5110230;28;20071;-51
2022/05/20 02:36:08;;;;;;;7.60;3.80;;;;;;;3.16;73.63;94513.13;5109406;28;20172;-48
2022/05/20 02:38:33;;;;;;;9.13;3.88;;;;;;;3.23;72.32;94515.47;5102170;28;20557;-48
2022/05/20 02:40:59;;;;;;;4.25;3.17;;;;;;;3.21;72.37;94506.97;5091184;28;20038;-50
2022/05/20 02:43:24;;;;;;;2.92;2.22;;;;;;;3.27;71.90;94505.81;5090784;28;20043;-50
2022/05/20 02:45:51;;;;;;;2.78;2.47;;;;;;;3.27;73.19;94507.81;5090761;28;20024;-49
2022/05/20 02:48:18;;;;;;;4.57;2.45;;;;;;;3.39;72.37;94515.69;5090411;28;20020;-47
2022/05/20 02:50:44;;;;;;;5.35;3.33;;;;;;;3.05;73.15;94509.00;5090291;28;20033;-49
2022/05/20 02:53:10;;;;;;;3.83;2.90;;;;;;;3.18;72.11;94508.69;5090365;28;20028;-48
2022/05/20 02:55:36;;;;;;;4.53;3.25;;;;;;;3.27;71.47;94508.56;5090578;28;20026;-47
2022/05/20 02:58:02;;;;;;;5.28;3.40;;;;;;;3.30;72.00;94506.84;5105369;28;20504;-49
2022/05/20 03:05:56;;;;;;;2.47;2.15;;;;;;;3.17;71.64;94498.25;5110483;28;20119;-49
2022/05/20 03:08:22;;;;;;;3.30;2.58;;;;;;;3.38;71.98;94516.16;5099939;28;20029;-47
2022/05/20 03:10:47;;;;;;;12.75;3.53;;;;;;;3.40;71.15;94508.25;5095143;28;20030;-50
2022/05/20 03:13:14;;;;;;;4.15;3.40;;;;;;;3.16;70.77;94491.28;5110652;28;20031;-50
2022/05/20 03:15:40;;;;;;;11.35;3.70;;;;;;;3.45;71.20;94508.31;5110659;27;20092;-49
2022/05/20 03:18:07;;;;;;;8.70;3.40;;;;;;;3.54;71.06;94504.69;5109285;28;20059;-47
2022/05/20 03:20:33;;;;;;;4.20;2.95;;;;;;;3.50;70.38;94510.38;5110383;28;20039;-47
2022/05/20 03:22:59;;;;;;;3.75;3.03;;;;;;;3.41;70.58;94512.47;5110547;28;20114;-47
2022/05/20 03:25:24;;;;;;;6.32;3.63;;;;;;;3.36;71.22;94511.16;5110404;28;20529;-47
2022/05/20 03:27:50;;;;;;;5.82;2.17;;;;;;;3.14;71.74;94515.56;5102148;28;20044;-45
2022/05/20 03:30:16;;;;;;;4.00;2.40;;;;;;;3.18;70.89;94516.13;5089539;28;20030;-45
2022/05/20 03:32:41;;;;;;;2.67;2.42;;;;;;;3.01;71.11;94480.44;5089790;28;20111;-46
2022/05/20 03:35:07;;;;;;;4.95;3.72;;;;;;;3.29;70.98;94522.47;5101073;28;20023;-47
2022/05/20 03:37:33;;;;;;;10.20;7.28;;;;;;;3.25;71.11;94523.91;5109941;28;20032;-45
2022/05/20 03:39:59;;;;;;;16.63;7.65;;;;;;;3.25;71.32;94521.19;5109063;28;20030;-47
2022/05/20 03:42:25;;;;;;;9.90;7.03;;;;;;;3.34;71.22;94527.25;5107447;28;20027;-48
2022/05/20 03:44:51;;;;;;;8.30;5.93;;;;;;;3.39;72.34;94531.28;5110107;28;20102;-46
2022/05/20 03:47:17;;;;;;;5.28;4.47;;;;;;;3.52;71.00;94521.56;5109737;28;20027;-46
2022/05/20 03:49:43;;;;;;;5.38;4.35;;;;;;;3.48;71.71;94518.28;5109387;28;20070;-48
2022/05/20 03:52:09;;;;;;;5.03;3.70;;;;;;;3.46;71.96;94522.72;5109915;28;20070;-49
2022/05/20 03:54:34;;;;;;;5.88;5.00;;;;;;;3.36;71.88;94524.03;5109776;28;20023;-48
2022/05/20 03:57:02;;;;;;;7.50;5.00;;;;;;;3.52;72.05;94521.56;5109330;28;20599;-46
2022/05/20 03:59:28;;;;;;;5.43;4.88;;;;;;;3.53;72.02;94506.66;5109635;28;20123;-46
2022/05/20 04:01:56;;;;;;;7.60;4.63;;;;;;;3.66;72.53;94528.19;5109495;28;20027;-47
2022/05/20 04:04:23;;;;;;;5.03;3.85;;;;;;;3.66;72.57;94531.66;5109535;28;20028;-46
2022/05/20 04:06:48;;;;;;;5.13;3.05;;;;;;;3.60;72.68;94530.84;5109561;28;20128;-46
2022/05/20 04:09:14;;;;;;;3.67;3.38;;;;;;;3.79;72.23;94521.13;5109389;28;20065;-46
2022/05/20 04:11:40;;;;;;;6.20;3.97;;;;;;;3.54;73.56;94519.09;5109620;28;20072;-47
2022/05/20 04:14:06;;;;;;;5.30;3.97;;;;;;;3.75;74.53;94520.59;5091351;28;20085;-46
2022/05/20 04:16:31;;;;;;;6.20;5.32;;;;;;;3.82;74.93;94506.53;5108873;28;20114;-46
2022/05/20 04:18:57;;;;;;;6.38;4.47;;;;;;;4.14;74.27;94526.50;5105968;28;20050;-46
2022/05/20 04:21:22;;;;;;;5.97;4.60;;;;;;;4.30;73.00;94533.38;5104651;28;20039;-48
2022/05/20 04:23:48;;;;;;;6.78;4.60;;;;;;;4.63;71.29;94528.97;5093409;28;20107;-46
2022/05/20 04:26:14;;;;;;;22.40;8.60;;;;;;;4.74;71.82;94542.00;5093293;28;20035;-46
2022/05/20 04:28:40;;;;;;;24.35;14.07;;;;;;;4.90;72.18;94546.84;5099313;28;20420;-46
2022/05/20 04:31:07;;;;;;;18.15;11.65;;;;;;;5.20;71.16;94553.56;5095587;28;20031;-47
2022/05/20 04:33:33;;;;;;;14.23;8.95;;;;;;;5.43;71.16;94551.72;5093236;28;20138;-45
2022/05/20 04:35:58;;;;;;;11.23;7.28;;;;;;;5.75;70.83;94544.94;5093209;28;20188;-47
2022/05/20 04:38:24;;;;;;;9.95;7.22;;;;;;;6.47;68.73;94544.47;5092780;28;20036;-47
2022/05/20 04:49:05;;;;;;;12.13;8.40;;;;;;;7.38;65.80;94538.03;5092808;28;20108;-49
2022/05/20 04:51:31;;;;;;;13.38;7.30;;;;;;;7.28;66.70;94547.00;5092897;28;20031;-49
2022/05/20 04:56:41;;;;;;;8.18;5.45;;;;;;;7.94;64.90;94554.38;5096921;28;20034;-47
2022/05/20 04:59:06;;;;;;;6.55;5.30;;;;;;;8.25;64.37;94551.28;5112469;28;20051;-48
2022/05/20 05:01:32;;;;;;;6.72;5.00;;;;;;;8.57;64.08;94554.41;5112835;28;20071;-49
2022/05/20 05:03:57;;;;;;;6.55;4.75;;;;;;;8.88;63.41;94560.19;5113026;28;20032;-48
2022/05/20 05:06:23;;;;;;;3.75;2.83;;;;;;;9.62;62.41;94557.09;5112927;27;20028;-49
2022/05/20 05:08:48;;;;;;;10.18;3.13;;;;;;;10.05;59.97;94553.66;5113027;28;20027;-53
2022/05/20 05:11:14;;;;;;;5.20;3.45;;;;;;;10.39;59.00;94565.84;5112534;28;20186;-50
2022/05/20 05:13:39;;;;;;;31.58;4.18;;;;;;;10.38;59.48;94559.56;5112528;28;20032;-50
2022/05/20 05:16:08;;;;;;;6.55;3.25;;;;;;;10.41;60.15;94560.53;5112564;28;20038;-48
2022/05/20 05:18:36;;;;;;;4.45;3.08;;;;;;;10.78;58.76;94557.03;5112710;28;20500;-49
2022/05/20 05:21:01;;;;;;;11.30;2.70;;;;;;;11.39;57.64;94538.25;5112630;28;20019;-49
2022/05/20 05:23:27;;;;;;;2.78;2.40;;;;;;;12.03;55.26;94552.75;5111497;28;20513;-49
2022/05/20 05:25:52;;;;;;;2.90;2.10;;;;;;;12.56;53.41;94547.19;5112525;28;20404;-48
2022/05/20 05:28:19;;;;;;;4.65;1.90;;;;;;;12.64;52.95;94550.78;5112173;28;20024;-48
2022/05/20 05:30:46;;;;;;;2.72;2.00;;;;;;;12.63;54.32;94533.41;5112610;27;20120;-49
2022/05/20 05:33:11;;;;;;;2.97;2.13;;;;;;;12.71;53.27;94541.84;5111671;28;20054;-47
2022/05/20 05:35:37;;;;;;;3.20;2.55;;;;;;;12.80;54.08;94552.44;5112511;27;20024;-48
2022/05/20 05:38:02;;;;;;;3.20;2.30;;;;;;;12.95;54.03;94538.75;5112082;28;20808;-48
2022/05/20 05:40:29;;;;;;;2.63;1.90;;;;;;;13.21;53.92;94541.47;5111882;28;20024;-47
2022/05/20 05:42:55;;;;;;;2.92;1.90;;;;;;;13.44;52.95;94539.69;5097047;28;20035;-47
2022/05/20 05:45:23;;;;;;;2.58;2.10;;;;;;;13.42;53.95;94547.03;5091869;28;20028;-50
2022/05/20 05:48:00;;;;;;;1.92;1.58;;;;;;;13.52;53.26;94540.47;5095385;28;20024;-50
2022/05/20 05:50:26;;;;;;;2.42;1.73;;;;;;;13.73;52.53;94551.56;5111801;28;20034;-48
2022/05/20 05:53:00;;;;;;;2.45;1.20;;;;;;;14.10;49.56;94542.00;5111831;28;20513;-48
2022/05/20 05:55:26;;;;;;;9.90;1.40;;;;;;;14.97;50.10;94540.06;5111741;28;20578;-49
2022/05/20 05:57:52;;;;;;;4.13;1.52;;;;;;;15.52;48.08;94543.94;5111197;28;20027;-49
2022/05/20 06:00:18;;;;;;;6.22;1.60;;;;;;;15.77;46.46;94538.56;5111471;28;20031;-47
2022/05/20 06:02:44;;;;;;;38.45;3.20;;;;;;;15.73;47.61;94543.75;5111633;28;20114;-52
2022/05/20 06:05:09;;;;;;;1.85;1.50;;;;;;;15.84;44.89;94543.38;5111682;28;20080;-51
2022/05/20 06:07:34;;;;;;;2.33;1.48;;;;;;;16.03;42.60;94549.31;5111917;28;20057;-48
2022/05/20 06:10:00;;;;;;;22.48;2.83;;;;;;;16.33;44.92;94534.63;5099516;28;20028;-47
2022/05/20 06:12:25;;;;;;;1.70;1.50;;;;;;;16.53;43.57;94542.03;5109792;28;20023;-48
2022/05/20 06:14:51;;;;;;;1.70;1.52;;;;;;;16.47;44.57;94533.84;5110631;27;20420;-48
2022/05/20 06:17:16;;;;;;;4.53;1.50;;;;;;;16.38;45.27;94531.63;5111459;28;20023;-50
2022/05/20 06:19:42;;;;;;;2.05;1.42;;;;;;;16.77;42.15;94532.28;5111512;28;20020;-48
2022/05/20 06:22:09;;;;;;;1.48;1.38;;;;;;;17.10;43.13;94523.41;5111375;28;20024;-45
2022/05/20 06:24:35;;;;;;;1.83;1.52;;;;;;;17.45;43.05;94525.03;5110933;28;20033;-47
2022/05/20 06:27:02;;;;;;;2.88;1.63;;;;;;;17.81;41.86;94524.63;5111498;28;20027;-48
2022/05/20 06:29:27;;;;;;;3.45;1.33;;;;;;;17.81;43.03;94513.47;5092360;28;20062;-47
2022/05/20 06:31:53;;;;;;;4.22;1.48;;;;;;;17.96;37.99;94523.75;5090858;28;20056;-49
2022/05/20 06:34:18;;;;;;;4.25;1.80;;;;;;;18.20;39.65;94525.78;5090472;28;20031;-46
2022/05/20 06:42:11;;;;;;;9.73;1.83;;;;;;;18.69;40.08;94528.47;5111019;28;20030;-45
2022/05/20 06:44:37;;;;;;;1.52;1.40;;;;;;;19.42;36.88;94526.66;5110853;28;20032;-47
2022/05/20 06:47:03;;;;;;;2.03;1.33;;;;;;;19.36;37.00;94533.84;5110901;28;20028;-49
2022/05/20 06:49:28;;;;;;;1.95;1.70;;;;;;;19.21;36.17;94523.53;5109515;28;20034;-49
2022/05/20 06:51:56;;;;;;;4.65;1.67;;;;;;;19.47;37.06;94514.44;5110555;28;20028;-47
2022/05/20 06:54:22;;;;;;;1.50;1.30;;;;;;;19.93;37.48;94528.50;5110465;28;20508;-51
2022/05/20 06:56:47;;;;;;;8.95;2.03;;;;;;;20.99;35.89;94521.72;5095905;28;20028;-48
2022/05/20 06:59:13;;;;;;;3.45;1.42;;;;;;;21.33;33.22;94523.47;5089898;28;20059;-47
2022/05/20 07:01:38;;;;;;;2.13;1.40;;;;;;;21.75;31.81;94506.06;5094577;28;20032;-49
2022/05/20 07:04:05;;;;;;;3.40;1.38;;;;;;;22.31;33.34;94515.59;5093672;28;20493;-47
2022/05/20 07:06:32;;;;;;;2.40;1.70;;;;;;;22.31;30.85;94515.59;5110841;27;20054;-49
2022/05/20 07:08:58;;;;;;;6.78;2.03;;;;;;;23.11;30.93;94514.56;5110023;28;20034;-51
2022/05/20 07:11:25;;;;;;;1.50;1.40;;;;;;;23.65;30.21;94506.03;5109728;28;20134;-47
2022/05/20 07:13:54;;;;;;;5.80;1.40;;;;;;;24.20;29.59;94506.59;5110447;28;20023;-52
2022/05/20 07:16:20;;;;;;;1.38;1.17;;;;;;;25.41;26.72;94506.66;5103057;28;20023;-52
2022/05/20 07:18:46;;;;;;;5.32;1.55;;;;;;;26.36;25.99;94503.31;5101521;28;20480;-52
2022/05/20 07:21:11;;;;;;;4.18;1.45;;;;;;;27.20;22.89;94506.16;5097618;28;20683;-49
2022/05/20 07:23:37;;;;;;;0.80;0.70;;;;;;;27.66;23.83;94505.56;5095340;28;20028;-51
2022/05/20 07:26:02;;;;;;;1.50;1.30;;;;;;;29.02;22.10;94501.78;5101969;28;20424;-49
2022/05/20 07:28:29;;;;;;;0.80;0.80;;;;;;;30.29;20.79;94506.84;5098831;28;20070;-50
2022/05/20 07:30:55;;;;;;;19.75;2.40;;;;;;;31.48;21.15;94506.09;5099249;28;20035;-50
2022/05/20 07:33:20;;;;;;;3.33;1.20;;;;;;;32.21;18.85;94505.50;5100067;28;20485;-52
2022/05/20 07:35:46;;;;;;;22.75;2.40;;;;;;;32.80;17.75;94494.38;5102702;28;20047;-52
2022/05/20 07:38:14;;;;;;;2.65;0.93;;;;;;;32.99;17.23;94495.59;5100207;28;20085;-52
2022/05/20 07:40:40;;;;;;;3.55;1.05;;;;;;;32.44;16.96;94493.34;5100032;28;20023;-53
2022/05/20 07:43:05;;;;;;;2.63;1.08;;;;;;;31.04;18.19;94493.16;5100214;28;20031;-53
2022/05/20 07:45:31;;;;;;;1.77;1.20;;;;;;;31.82;17.82;94492.91;5099113;28;20031;-51
2022/05/20 07:47:56;;;;;;;2.90;0.93;;;;;;;32.68;16.96;94488.34;5101930;28;20027;-47
2022/05/20 07:50:24;;;;;;;2.90;0.73;;;;;;;32.89;16.59;94491.06;5098543;28;20020;-49
2022/05/20 07:55:39;;;;;;;1.17;0.80;;;;;;;33.52;15.57;94484.88;5098697;28;20543;-50
2022/05/20 07:58:09;;;;;;;1.55;0.82;;;;;;;32.94;16.95;94480.47;5101104;28;20061;-49
2022/05/20 08:00:35;;;;;;;3.70;1.20;;;;;;;33.32;15.93;94472.16;5101384;28;20071;-48
2022/05/20 08:03:01;;;;;;;7.97;0.70;;;;;;;34.01;16.18;94489.63;5102368;28;20476;-47
2022/05/20 08:05:29;;;;;;;4.15;1.13;;;;;;;34.62;15.34;94479.44;5099631;28;20016;-49
2022/05/20 08:07:59;;;;;;;2.47;0.90;;;;;;;34.50;14.69;94490.66;5098459;28;20042;-52
2022/05/20 08:10:27;;;;;;;2.63;1.13;;;;;;;34.56;14.78;94487.94;5096969;28;21104;-47
2022/05/20 08:12:52;;;;;;;11.20;1.30;;;;;;;33.84;15.95;94476.31;5098571;28;20034;-50
2022/05/20 08:15:18;;;;;;;3.75;1.17;;;;;;;34.52;15.75;94485.72;5096895;28;20020;-50
2022/05/20 08:17:44;;;;;;;67.18;4.70;;;;;;;34.45;15.24;94489.84;5096973;28;20404;-50
2022/05/20 08:20:25;;;;;;;37.15;3.78;;;;;;;34.76;15.04;94482.63;5095342;28;20012;-50
2022/05/20 08:22:53;;;;;;;9.27;1.27;;;;;;;35.31;15.10;94482.22;5097862;28;20016;-51
2022/05/20 08:25:24;;;;;;;5.35;0.90;;;;;;;35.92;14.16;94483.94;5105032;28;20034;-49
2022/05/20 08:27:49;;;;;;;1.40;0.75;;;;;;;35.19;14.70;94484.88;5098094;28;20024;-50
2022/05/20 08:30:18;;;;;;;3.65;1.13;;;;;;;35.80;13.36;94483.78;5099696;28;20044;-59
2022/05/20 08:32:44;;;;;;;1.50;0.73;;;;;;;35.95;14.79;94488.34;5092182;28;20019;-58
2022/05/20 08:35:10;;;;;;;1.67;0.95;;;;;;;36.05;14.71;94482.72;5095660;28;20098;-58
2022/05/20 08:37:41;;;;;;;2.47;1.10;;;;;;;35.81;15.17;94476.59;5102801;28;20705;-58
2022/05/20 08:40:30;;;;;;;2.10;0.77;;;;;;;35.60;15.07;94483.44;5096267;28;20012;-59
2022/05/20 08:42:58;;;;;;;3.05;0.65;;;;;;;35.54;14.99;94477.59;5099513;28;20578;-58
2022/05/20 08:45:24;;;;;;;;;;;;;;;35.53;15.77;94471.13;5096203;28;20089;-58
2022/05/20 08:47:51;;;;;;;12.88;1.45;;;;;;;35.62;14.63;94469.13;5097324;28;19907;-59
2022/05/20 08:50:21;;;;;;;20.30;2.20;;;;;;;35.65;15.04;94471.31;5097696;28;20713;-58
2022/05/20 08:52:47;;;;;;;1.15;0.90;;;;;;;35.52;14.11;94469.66;5096748;28;20021;-58
2022/05/20 08:55:13;;;;;;;2.05;1.08;;;;;;;35.91;15.74;94464.53;5101730;28;20036;-58
2022/05/20 08:57:40;;;;;;;1.92;1.02;;;;;;;36.52;13.54;94460.38;5107288;28;20023;-57
2022/05/20 09:00:11;;;;;;;1.85;0.85;;;;;;;37.25;12.84;94454.69;5107533;28;20484;-57
2022/05/20 09:02:37;;;;;;;5.05;2.00;;;;;;;36.82;12.64;94452.78;5107444;28;20067;-57
2022/05/20 09:05:29;;;;;;;19.23;4.03;;;;;;;36.49;13.36;94451.00;5107270;28;20028;-57
2022/05/20 09:08:02;;;;;;;14.85;5.25;;;;;;;36.62;12.32;94449.72;5107459;28;20683;-57
2022/05/20 09:10:35;;;;;;;9.93;4.40;;;;;;;36.78;12.97;94449.88;5112728;28;20024;-58
2022/05/20 09:13:13;;;;;;;9.82;4.78;;;;;;;36.76;12.14;94454.88;5112678;28;20039;-56
2022/05/20 09:15:46;;;;;;;1.65;1.08;;;;;;;36.61;12.25;94454.00;5112960;27;20027;-58
2022/05/20 09:18:18;;;;;;;2.65;1.58;;;;;;;36.77;12.44;94450.59;5111578;28;20389;-56
2022/05/20 09:20:51;;;;;;;1.90;1.05;;;;;;;36.98;12.01;94443.63;5111245;28;20066;-55
2022/05/20 09:23:20;;;;;;;27.60;3.85;;;;;;;37.09;11.62;94434.41;5112601;28;20023;-58
2022/05/20 09:26:00;;;;;;;1.15;0.98;;;;;;;37.46;12.47;94434.75;5112572;28;20107;-58
2022/05/20 09:28:38;;;;;;;4.95;2.03;;;;;;;37.21;11.92;94422.97;5112233;28;20141;-58
2022/05/20 09:31:13;;;;;;;3.85;1.50;;;;;;;37.17;12.12;94431.59;5111451;28;20031;-58
2022/05/20 09:33:38;;;;;;;1.70;1.00;;;;;;;37.39;11.43;94428.22;5112522;28;20034;-57
2022/05/20 09:36:05;;;;;;;3.55;1.90;;;;;;;37.49;12.17;94425.41;5110891;28;20111;-56
2022/05/20 09:38:33;;;;;;;7.38;1.95;;;;;;;37.85;11.17;94419.94;5112038;27;20039;-58
2022/05/20 09:40:59;;;;;;;;;;;;;;;37.80;10.48;94420.59;5112477;28;20524;-57
2022/05/20 09:43:30;;;;;;;12.70;5.10;;;;;;;36.83;12.66;94418.97;5110750;28;19908;-56
2022/05/20 09:45:58;;;;;;;6.50;2.63;;;;;;;37.18;13.41;94415.78;5111902;28;20488;-58
2022/05/20 09:48:45;;;;;;;2.67;1.20;;;;;;;37.78;12.69;94409.03;5110791;27;20424;-58
2022/05/20 09:51:14;;;;;;;4.25;1.60;;;;;;;37.40;13.01;94406.63;5090271;28;20024;-58
2022/05/20 09:53:42;;;;;;;7.85;2.08;;;;;;;37.66;11.15;94403.94;5090195;28;20039;-59
2022/05/20 09:56:18;;;;;;;;;;;;;;;38.00;12.14;94405.59;5097256;28;20036;-59
2022/05/20 09:59:03;;;;;;;3.90;1.83;;;;;;;38.13;13.12;94410.00;5110158;28;20590;-58
2022/05/20 10:01:29;;;;;;;3.90;1.20;;;;;;;37.95;11.62;94402.69;5111539;28;20028;-57
2022/05/20 10:03:58;;;;;;;1.98;1.10;;;;;;;36.87;11.01;94387.34;5110521;28;20032;-59
2022/05/20 10:06:32;;;;;;;2.95;1.00;;;;;;;37.14;13.52;94392.66;5100903;28;20047;-57
2022/05/20 10:09:12;;;;;;;2.78;1.10;;;;;;;37.23;14.09;94394.19;5099914;28;20111;-58
2022/05/20 10:12:04;;;;;;;3.65;0.88;;;;;;;36.23;11.99;94387.34;5090066;28;20409;-58
2022/05/20 10:14:48;;;;;;;4.45;0.82;;;;;;;36.32;13.16;94391.78;5089988;28;20028;-58
2022/05/20 10:17:14;;;;;;;1.75;0.82;;;;;;;36.55;14.12;94376.25;5090974;28;20024;-57
2022/05/20 10:19:50;;;;;;;0.77;0.65;;;;;;;35.88;14.23;94380.41;5090183;28;20505;-57
2022/05/20 10:22:53;;;;;;;1.85;0.98;;;;;;;36.20;14.13;94374.38;5108195;28;20092;-57
2022/05/20 10:25:49;;;;;;;9.88;1.10;;;;;;;36.13;15.21;94370.69;5109199;28;20039;-58
2022/05/20 10:34:25;;;;;;;1.20;0.80;;;;;;;37.17;11.20;94358.84;5108124;28;20123;-57
2022/05/20 10:36:58;;;;;;;1.42;0.60;;;;;;;37.31;11.91;94358.97;5108422;28;20140;-58
2022/05/20 10:39:53;;;;;;;2.15;0.95;;;;;;;37.97;12.02;94353.69;5107981;28;20114;-58
2022/05/20 10:42:27;;;;;;;6.53;1.42;;;;;;;37.95;12.61;94352.94;5108756;28;20060;-58
2022/05/20 10:51:06;;;;;;;17.45;1.48;;;;;;;37.22;13.00;94343.78;5108747;28;20058;-55
2022/05/20 10:53:55;;;;;;;5.30;0.60;;;;;;;36.88;11.61;94340.63;5108677;28;20457;-58
2022/05/20 10:56:45;;;;;;;2.53;0.80;;;;;;;36.55;12.23;94335.97;5105329;28;20516;-58
2022/05/20 10:59:29;;;;;;;2.80;0.98;;;;;;;36.57;13.00;94336.00;5107437;28;20568;-58
2022/05/20 11:02:24;;;;;;;9.43;1.15;;;;;;;35.82;14.08;94342.25;5107803;28;20040;-57
2022/05/20 11:05:02;;;;;;;19.83;1.80;;;;;;;35.46;14.42;94334.53;5094379;28;20027;-57
2022/05/20 11:07:40;;;;;;;35.27;3.60;;;;;;;35.21;15.40;94329.88;5098734;28;20038;-51
2022/05/20 11:10:24;;;;;;;3.00;1.00;;;;;;;35.32;15.05;94331.47;5110649;28;20432;-58
2022/05/20 11:13:20;;;;;;;3.45;1.35;;;;;;;34.53;15.17;94317.22;5110779;27;20423;-56
2022/05/20 11:15:58;;;;;;;12.65;4.47;;;;;;;34.07;14.47;94319.91;5106886;28;20062;-58
2022/05/20 11:18:41;;;;;;;2.95;1.20;;;;;;;33.64;14.03;94326.88;5089403;28;20465;-57
2022/05/20 11:21:06;;;;;;;3.72;1.33;;;;;;;33.13;16.21;94319.31;5106341;28;20459;-57
2022/05/20 11:23:50;;;;;;;3.60;1.55;;;;;;;32.79;16.02;94313.44;5097083;28;20042;-57
2022/05/20 11:26:57;;;;;;;6.43;2.38;;;;;;;32.17;16.16;94308.97;5111344;28;20076;-57
2022/05/20 11:29:45;;;;;;;32.75;3.45;;;;;;;31.59;16.02;94316.59;5111313;28;20405;-57
2022/05/20 11:32:11;;;;;;;;;;;;;;;31.33;16.93;94307.22;5089712;28;20039;-58
2022/05/20 11:35:01;;;;;;;20.88;2.10;;;;;;;30.55;16.44;94316.84;5110154;28;20002;-57
2022/05/20 11:37:57;;;;;;;2.47;0.80;;;;;;;30.34;16.34;94303.34;5111302;28;20131;-58
2022/05/20 11:40:29;;;;;;;57.40;5.50;;;;;;;29.76;20.23;94304.81;5106162;28;20025;-58
2022/05/20 11:43:07;;;;;;;5.25;0.90;;;;;;;29.11;17.54;94298.78;5090827;28;20421;-54
2022/05/20 11:45:54;;;;;;;1.23;0.90;;;;;;;28.14;18.52;94292.03;5089732;28;20097;-57
2022/05/20 11:48:25;;;;;;;2.45;1.00;;;;;;;27.81;18.98;94294.84;5092392;28;20036;-56
2022/05/20 11:51:15;;;;;;;13.13;2.70;;;;;;;27.72;20.95;94290.22;5096849;28;20418;-55
2022/05/20 11:53:54;;;;;;;88.55;11.40;;;;;;;27.95;22.54;94281.28;5092096;28;20042;-56
2022/05/20 11:56:35;;;;;;;2.60;1.15;;;;;;;27.87;19.19;94280.94;5093152;28;20023;-56
2022/05/20 11:59:12;;;;;;;17.30;1.63;;;;;;;27.61;19.09;94276.97;5109218;28;20136;-56
2022/05/20 12:01:39;;;;;;;8.23;1.20;;;;;;;27.38;19.24;94271.66;5102017;28;20420;-56
2022/05/20 12:04:06;;;;;;;3.10;0.95;;;;;;;27.28;18.58;94271.94;5110268;28;20448;-57
2022/05/20 12:06:33;;;;;;;2.38;1.27;;;;;;;27.32;21.83;94272.09;5109389;28;20055;-57
2022/05/20 12:09:01;;;;;;;17.25;1.83;;;;;;;27.47;21.74;94259.31;5104117;28;20110;-57
2022/05/20 12:11:35;;;;;;;2.50;0.80;;;;;;;27.46;20.78;94263.53;5108798;28;20023;-57
2022/05/20 12:14:16;;;;;;;1.90;1.02;;;;;;;27.48;21.19;94258.66;5108725;28;20034;-57
2022/05/20 12:16:58;;;;;;;2.95;0.88;;;;;;;27.42;18.94;94257.66;5107888;28;20028;-57
2022/05/20 12:25:34;;;;;;;10.82;1.02;;;;;;;27.51;20.07;94248.13;5093264;28;20090;-58
2022/05/20 12:28:27;;;;;;;1.65;0.93;;;;;;;27.43;21.14;94251.34;5090453;28;20051;-58
2022/05/20 12:31:04;;;;;;;2.42;0.88;;;;;;;27.24;21.32;94248.31;5105705;28;20096;-58
2022/05/20 12:33:49;;;;;;;4.22;1.02;;;;;;;27.19;19.39;94238.91;5110377;28;20637;-58
2022/05/20 12:36:14;;;;;;;2.92;1.35;;;;;;;26.45;19.63;94229.75;5110639;28;20031;-57